Time;durP1;ratioP1;P1;durP2;ratioP2;P2;SDS_P1;SDS_P2;PMS_P1;PMS_P2;Temp;Humidity;BMP_temperature;BMP_pressure;BME280_temperature;BME280_humidity;BME280_pressure;Samples;Min_cycle;Max_cycle;Signal;HPM_P1;HPM_P2
2021/04/14 00:13:14;;;;;;;38.63;14.63;;;;;;;3.93;84.13;101147.07;714109;1199;115436;-76
2021/04/14 00:28:19;;;;;;;29.93;13.00;;;;;;;3.99;86.14;101139.01;714046;1203;114765;-76
2021/04/14 00:43:25;;;;;;;19.58;9.40;;;;;;;3.81;86.53;101133.77;713885;1199;113914;-75
2021/04/14 00:58:27;;;;;;;25.60;10.95;;;;;;;3.86;87.88;101124.92;713764;1203;114293;-78
2021/04/14 01:13:28;;;;;;;32.50;12.28;;;;;;;3.85;87.76;101113.67;717643;1165;114535;-71
2021/04/14 01:28:34;;;;;;;123.93;52.03;;;;;;;3.75;89.04;101099.44;714653;1167;114242;-69
2021/04/14 01:43:35;;;;;;;96.87;35.40;;;;;;;3.75;88.95;101087.32;714124;1202;114962;-69
2021/04/14 01:58:37;;;;;;;50.77;22.93;;;;;;;3.55;89.15;101077.02;713998;1200;114876;-70
2021/04/14 02:13:40;;;;;;;27.75;13.95;;;;;;;3.41;91.47;101069.88;714004;1200;113549;-69
2021/04/14 02:28:46;;;;;;;23.02;9.20;;;;;;;3.38;92.56;101064.81;714223;1200;115188;-69
2021/04/14 02:43:50;;;;;;;17.60;7.45;;;;;;;3.29;93.77;101061.73;713597;1199;115070;-69
2021/04/14 02:58:51;;;;;;;21.25;10.13;;;;;;;3.11;93.46;101062.55;713594;1202;115118;-69
2021/04/14 03:13:54;;;;;;;15.93;9.00;;;;;;;3.10;95.08;101058.27;713239;1202;114234;-70
2021/04/14 03:28:56;;;;;;;19.35;10.15;;;;;;;3.18;95.70;101061.39;713535;1199;115241;-69
2021/04/14 03:43:57;;;;;;;28.60;11.90;;;;;;;3.13;96.42;101061.58;712853;1202;114780;-68
2021/04/14 03:58:59;;;;;;;29.53;18.03;;;;;;;3.07;96.09;101069.62;713533;1200;115161;-69
2021/04/14 04:14:01;;;;;;;21.13;11.40;;;;;;;3.05;97.31;101074.05;713608;1200;114762;-69
2021/04/14 04:29:02;;;;;;;19.93;8.60;;;;;;;3.21;97.59;101076.80;713858;1204;114900;-70
2021/04/14 04:44:04;;;;;;;19.67;9.57;;;;;;;3.28;99.08;101078.19;713622;1200;114738;-69
2021/04/14 04:59:06;;;;;;;17.70;9.58;;;;;;;3.42;99.51;101087.09;713616;1203;114638;-70
2021/04/14 05:14:10;;;;;;;24.00;9.83;;;;;;;3.53;99.57;101082.28;712331;1199;114747;-69
2021/04/14 05:29:11;;;;;;;28.30;12.10;;;;;;;3.71;100.00;101096.16;713712;1199;114647;-71
2021/04/14 05:44:13;;;;;;;32.17;16.37;;;;;;;3.95;100.00;101098.53;713558;1205;115222;-69
2021/04/14 05:59:15;;;;;;;100.37;43.00;;;;;;;4.24;100.00;101107.52;713525;1200;115085;-70
2021/04/14 06:14:17;;;;;;;57.00;16.75;;;;;;;4.49;100.00;101106.32;713742;1199;115337;-69
2021/04/14 06:29:18;;;;;;;27.45;12.20;;;;;;;4.65;97.74;101107.22;713835;1200;115580;-69
2021/04/14 06:44:59;;;;;;;48.00;17.50;;;;;;;5.25;97.78;101099.88;713796;1199;114746;-69
2021/04/14 07:00:07;;;;;;;29.55;13.08;;;;;;;5.54;95.80;101094.88;713867;1200;115092;-70
2021/04/14 07:15:14;;;;;;;26.47;14.80;;;;;;;5.87;95.60;101101.77;712784;1203;113947;-68
2021/04/14 07:30:27;;;;;;;26.13;10.33;;;;;;;6.30;95.50;101104.61;713164;1200;115315;-69
2021/04/14 07:45:34;;;;;;;21.48;8.23;;;;;;;6.83;94.60;101097.20;713747;1200;114976;-68
2021/04/14 08:00:43;;;;;;;22.55;7.58;;;;;;;7.08;92.75;101091.34;714779;1200;114864;-69
2021/04/14 08:15:46;;;;;;;82.80;15.88;;;;;;;7.24;90.71;101085.20;713259;1176;113730;-70
2021/04/14 08:30:48;;;;;;;17.78;8.38;;;;;;;7.63;89.47;101081.05;714648;1200;114207;-69
2021/04/14 08:45:50;;;;;;;24.68;10.43;;;;;;;7.75;88.14;101075.04;714614;1200;113541;-78
2021/04/14 09:00:54;;;;;;;29.17;12.87;;;;;;;7.82;83.92;101075.48;713807;1200;115320;-74
2021/04/14 09:15:58;;;;;;;18.45;6.98;;;;;;;8.39;81.44;101065.72;714023;1200;113918;-74
2021/04/14 09:31:25;;;;;;;13.98;8.10;;;;;;;9.00;80.63;101047.69;713957;1203;114197;-73
2021/04/14 09:46:39;;;;;;;17.20;8.10;;;;;;;9.62;78.73;101036.33;713984;1199;114598;-73
2021/04/14 10:01:42;;;;;;;36.07;16.10;;;;;;;9.59;76.36;101030.47;714045;1181;113712;-73
2021/04/14 10:16:45;;;;;;;15.35;8.48;;;;;;;9.23;73.68;101022.50;715179;1199;115055;-68
2021/04/14 10:31:47;;;;;;;94.58;38.23;;;;;;;9.10;72.62;101026.94;714031;1177;114138;-69
2021/04/14 10:46:49;;;;;;;59.70;18.78;;;;;;;8.88;69.95;101017.98;713893;1199;115257;-72
2021/04/14 11:01:52;;;;;;;33.88;18.30;;;;;;;8.66;70.52;101018.61;713972;1200;114237;-70
2021/04/14 11:16:54;;;;;;;17.07;9.03;;;;;;;8.62;70.03;101015.36;713754;1199;115124;-69
2021/04/14 11:31:58;;;;;;;27.53;11.85;;;;;;;8.63;71.02;101008.34;714176;1177;114185;-70
2021/04/14 11:47:02;;;;;;;40.03;16.23;;;;;;;8.82;70.46;101006.13;714524;1199;115024;-70
2021/04/14 12:02:25;;;;;;;14.78;8.00;;;;;;;8.81;68.00;101008.86;713991;1203;113841;-70
2021/04/14 12:17:27;;;;;;;18.20;8.40;;;;;;;8.87;67.17;100999.73;714141;1200;114832;-71
2021/04/14 12:32:29;;;;;;;17.28;6.63;;;;;;;8.15;67.44;101001.06;714201;1199;114910;-69
2021/04/14 12:47:31;;;;;;;17.53;6.73;;;;;;;7.48;73.01;101021.03;714036;1177;113600;-69
2021/04/14 13:03:09;;;;;;;21.03;8.23;;;;;;;6.74;81.11;101015.12;714138;1200;115255;-70
2021/04/14 13:18:12;;;;;;;15.48;6.25;;;;;;;6.75;84.54;101026.41;713876;1199;114711;-69
2021/04/14 13:33:38;;;;;;;19.38;7.58;;;;;;;6.96;86.59;101019.05;714014;1203;113743;-69
2021/04/14 13:48:54;;;;;;;23.23;9.70;;;;;;;6.41;88.51;101031.84;713870;1200;115272;-71
2021/04/14 14:03:57;;;;;;;22.13;8.67;;;;;;;6.60;91.59;101012.53;714279;1202;114900;-71
2021/04/14 14:19:03;;;;;;;27.20;10.30;;;;;;;7.02;88.98;101002.17;714334;1200;115239;-71
2021/04/14 14:34:05;;;;;;;28.97;10.17;;;;;;;7.32;85.72;100988.98;713759;1200;114113;-71
2021/04/14 14:49:23;;;;;;;9.63;5.53;;;;;;;7.18;84.25;100995.08;714331;1177;113784;-71
2021/04/14 15:04:25;;;;;;;9.83;5.55;;;;;;;6.87;84.25;101003.95;713882;1199;114287;-71
2021/04/14 15:19:26;;;;;;;15.10;6.78;;;;;;;6.65;84.25;101000.88;714039;1200;115221;-71
2021/04/14 15:34:28;;;;;;;30.60;12.98;;;;;;;6.51;83.51;101019.11;713979;1199;115256;-70
2021/04/14 15:49:30;;;;;;;11.30;5.40;;;;;;;6.29;85.09;101020.36;713936;1178;113949;-70
2021/04/14 16:04:33;;;;;;;19.15;9.00;;;;;;;6.10;86.04;101025.81;714389;1199;115082;-71
2021/04/14 16:19:35;;;;;;;28.47;13.57;;;;;;;5.91;89.45;101030.36;714010;1177;113839;-70
2021/04/14 16:34:36;;;;;;;33.30;13.63;;;;;;;5.68;91.12;101029.89;714225;1198;115149;-69
2021/04/14 16:49:39;;;;;;;40.25;15.03;;;;;;;5.52;94.05;101031.64;714043;1199;115106;-69
2021/04/14 17:04:40;;;;;;;24.18;10.95;;;;;;;5.42;95.08;101024.34;713977;1177;113857;-69
2021/04/14 17:19:42;;;;;;;26.95;10.85;;;;;;;5.19;95.82;101027.34;718786;1199;113928;-70
2021/04/14 17:34:43;;;;;;;16.95;7.20;;;;;;;5.12;96.90;101050.25;715744;1202;114058;-69
2021/04/14 17:49:46;;;;;;;23.58;10.90;;;;;;;5.02;98.64;101049.91;714270;1199;115573;-69
2021/04/14 18:04:49;;;;;;;45.30;19.95;;;;;;;4.89;99.07;101065.30;714447;1200;113663;-70
2021/04/14 18:19:51;;;;;;;56.83;27.85;;;;;;;4.78;99.46;101072.83;714062;1200;115544;-71
2021/04/14 18:34:52;;;;;;;42.98;16.35;;;;;;;4.73;99.36;101073.05;713898;1202;113863;-71
2021/04/14 18:49:54;;;;;;;66.00;20.95;;;;;;;4.70;100.00;101073.22;714182;1177;114018;-71
2021/04/14 19:04:56;;;;;;;40.60;13.77;;;;;;;4.56;100.00;101073.90;713902;1199;115808;-70
2021/04/14 19:19:57;;;;;;;31.83;12.15;;;;;;;4.43;100.00;101068.47;714047;1199;115128;-72
2021/04/14 19:35:00;;;;;;;32.25;11.85;;;;;;;4.47;100.00;101077.81;714632;1199;114413;-70
2021/04/14 19:50:07;;;;;;;25.97;10.13;;;;;;;4.47;100.00;101080.42;714525;1189;114163;-70
2021/04/14 20:05:09;;;;;;;26.25;9.05;;;;;;;4.28;100.00;101072.67;715132;1199;115696;-71
2021/04/14 20:20:13;;;;;;;40.73;12.63;;;;;;;4.19;100.00;101067.10;714641;1183;114418;-71
2021/04/14 20:35:18;;;;;;;34.68;10.50;;;;;;;4.10;100.00;101064.02;714794;1199;115008;-71
2021/04/14 20:50:28;;;;;;;29.57;10.30;;;;;;;3.99;100.00;101042.94;714714;1203;115901;-70
2021/04/14 21:05:34;;;;;;;21.33;8.90;;;;;;;3.89;100.00;101036.50;714754;1200;115347;-70
2021/04/14 21:20:38;;;;;;;11.65;5.20;;;;;;;3.89;100.00;101020.92;714556;1199;113916;-71
2021/04/14 21:35:40;;;;;;;33.40;10.20;;;;;;;3.93;100.00;101019.86;714201;1175;113856;-71
2021/04/14 21:50:43;;;;;;;22.73;8.65;;;;;;;3.88;100.00;101016.64;714020;1203;115143;-71
2021/04/14 22:05:44;;;;;;;23.13;8.33;;;;;;;3.89;100.00;101013.14;714706;1203;113935;-71
2021/04/14 22:20:47;;;;;;;25.48;8.48;;;;;;;3.89;100.00;101015.73;714102;1205;115062;-71
2021/04/14 22:35:48;;;;;;;13.60;5.85;;;;;;;3.82;100.00;101012.59;713721;1202;115099;-71
2021/04/14 22:50:51;;;;;;;12.48;5.25;;;;;;;3.79;100.00;101008.39;713722;1205;114976;-71
2021/04/14 23:05:55;;;;;;;11.38;5.20;;;;;;;3.77;100.00;101001.59;713602;1202;115661;-71
2021/04/14 23:20:57;;;;;;;12.20;5.10;;;;;;;3.72;100.00;100981.06;713669;1203;115708;-70
2021/04/14 23:35:58;;;;;;;8.10;4.13;;;;;;;3.66;100.00;100976.16;713567;1200;114424;-72
2021/04/14 23:51:01;;;;;;;9.83;3.95;;;;;;;3.66;100.00;100960.59;713571;1203;114761;-72
